Las Vegas, Nevada (DRI) Weather observations

Data are for observation ending at time listed.
 Day   Time    Ave.   Ave.  Ave.  Vector   Max.   Stn.    Total    Solar   Ave.  
  of    of     Air    Rel.  Wind   Wind    Wind   Baro.  Precip.   Rad.    Soil  
Year   Day     Temp.  Hum.  Speed  Dir.    Gust   Pres.                    Temp. 
2014   (PST)    F      %     mph   deg.    mph     mb.     in.     W/m2     F   
------------------------------------------------------------------------------
 205   17:50  108.6     9    4.9   205      9.9   935.1    0.00     182    104.8
 205   18:00  108.4     9    5.9   203     14.8   935.0    0.00     149    104.9
 205   18:10  107.4     9    6.2   198     11.5   935.2    0.00      92    105.0
 205   18:20  107.0     9    5.6   206     11.9   935.3    0.00      28    105.2
 205   18:30  107.3     9    3.6   209      6.9   935.5    0.00      46    105.3
 205   18:40  106.6     8    5.1   209      9.3   935.6    0.00      14    105.4
 205   18:50  106.1     8    5.0   198      9.4   935.7    0.00       7    105.5
 205   19:00  105.8     8    4.5   205      9.0   935.8    0.00       4    105.5
 205   19:10  105.4     8    4.6   201      8.8   935.9    0.00       0    105.5
 205   19:20  105.1     9    5.2   196     14.3   935.9    0.00       0    105.6
 205   19:30  104.9     9    4.5   202      9.0   936.0    0.00       0    105.6
 205   19:40  104.5     9    3.2   197     13.7   936.2    0.00       0    105.6
 205   19:50  104.3     9    4.1   205      8.3   936.3    0.00       0    105.6
 205   20:00  104.2     9    4.0   204      8.6   936.5    0.00       0    105.6
 205   20:10  104.0     9    2.8   194      6.3   936.6    0.00       0    105.6
 205   20:20  103.6     9    2.2   187      4.5   936.8    0.00       0    105.6
 205   20:30  103.2    10    2.1   182      4.5   936.9    0.00       0    105.5
 205   20:40  102.7    10    2.9   182      5.0   937.0    0.00       0    105.5
 205   20:50  102.4    10    2.8   184      5.9   937.0    0.00       0    105.5
 205   21:00  102.1    10    2.7   202      5.0   937.1    0.00       0    105.4
 205   21:10  101.5    10    2.0   169      4.7   937.2    0.00       0    105.4
 205   21:20  100.6    11    0.4   115      2.9   937.2    0.00       0    105.4
 205   21:30   99.8    11    1.3   173      8.3   937.2    0.00       0    105.3
 205   21:40   99.8    11    1.6   167      9.8   937.3    0.00       0    105.2
 205   21:50  100.0    12    4.0   172     11.7   937.3    0.00       0    105.2
 205   22:00   99.5    15    6.0   173     11.3   937.5    0.00       0    105.1
 205   22:10   98.7    19    7.5   173     14.8   937.6    0.00       0    105.0
 205   22:20   98.2    21    8.1   176     14.8   937.7    0.00       0    104.9
 205   22:30   97.8    22    8.6   176     14.0   937.7    0.00       0    104.9
 205   22:40   97.3    22   10.0   174     18.4   937.9    0.00       0    104.8
 205   22:50   96.7    23    9.8   173     16.9   937.9    0.00       0    104.7
 205   23:00   96.8    22    9.2   177     15.9   937.9    0.00       0    104.6
 205   23:10   97.1    21    8.5   177     13.7   938.0    0.00       0    104.5
 205   23:20   97.2    21    8.8   181     13.8   938.1    0.00       0    104.4
 205   23:30   96.7    22    7.8   180     17.7   938.2    0.00       0    104.3
 205   23:40   96.6    21    5.7   183     14.0   938.2    0.00       0    104.2
 205   23:50   96.3    22    4.8   181     12.5   938.3    0.00       0    104.2
 206    0:00   96.4    22    6.5   179     12.6   938.3    0.00       0    104.1
 206    0:10   96.3    22    6.5   178     13.2   938.2    0.00       0    104.0
 206    0:20   96.6    22    6.2   181     11.5   938.1    0.00       0    103.9
 206    0:30   96.5    22    6.2   175     11.2   938.1    0.00       0    103.8
 206    0:40   96.4    22    6.1   172     10.2   938.1    0.00       0    103.7
 206    0:50   96.4    22    6.3   173     11.0   938.1    0.00       0    103.6
 206    1:00   96.3    22    5.6   174     10.5   938.0    0.00       0    103.5
 206    1:10   96.0    22    5.5   181      9.4   938.1    0.00       0    103.4
 206    1:20   95.6    22    4.7   177      9.0   938.2    0.00       0    103.3
 206    1:30   95.3    22    5.5   179      9.9   938.1    0.00       0    103.2
 206    1:40   95.0    22    5.3   176      8.8   938.1    0.00       0    103.2
 206    1:50   94.7    22    5.5   177      9.4   938.0    0.00       0    103.1
 206    2:00   94.6    22    4.6   179      8.3   938.1    0.00       0    103.0
 206    2:10   94.2    23    5.0   181      9.3   938.1    0.00       0    102.9
 206    2:20   93.8    23    4.1   187      7.0   938.2    0.00       1    102.8
 206    2:30   93.5    23    3.8   192      7.7   938.2    0.00       0    102.7
 206    2:40   93.3    23    3.2   206      6.5   938.1    0.00       1    102.5
 206    2:50   93.1    22    3.5   196      6.3   938.1    0.00       1    102.5
 206    3:00   93.1    22    3.3   200      5.4   938.1    0.00       1    102.4
 206    3:10   92.7    22    3.1   190      5.7   938.1    0.00       1    102.3
 206    3:20   92.4    23    3.8   190      6.5   938.2    0.00       0    102.2
 206    3:30   92.1    22    2.8   189      5.3   938.3    0.00       1    102.1
 206    3:40   92.3    22    2.3   193      4.0   938.3    0.00       1    102.0
 206    3:50   92.3    21    1.9   185      3.7   938.4    0.00       2    101.9
 206    4:00   92.1    22    3.2   177      6.1   938.6    0.00       1    101.8
 206    4:10   91.7    22    3.4   181      7.0   938.6    0.00       2    101.7
 206    4:20   91.4    22    3.8   174      7.5   938.7    0.00       2    101.6
 206    4:30   91.1    22    3.5   172      6.6   938.8    0.00       3    101.5
 206    4:40   90.9    22    1.8   172      4.8   939.0    0.00       3    101.4
 206    4:50   90.6    22    0.6   175      2.8   939.0    0.00       3    101.4
 206    5:00   90.6    22    1.7   198      4.4   939.1    0.00      10    101.3
 206    5:10   91.3    21    3.3   181      6.4   939.1    0.00      23    101.2
 206    5:20   92.2    20    3.5   179      6.4   939.1    0.00      29    101.0
 206    5:30   92.6    19    3.3   190      6.6   939.1    0.00      25    100.9
 206    5:40   92.8    20    1.3   184      4.0   939.2    0.00      31    100.8
 206    5:50   92.7    20    3.0   173      5.8   939.3    0.00      35    100.7
 206    6:00   93.3    19    3.1   175      5.6   939.3    0.00      43    100.6
 206    6:10   93.2    20    3.2   177      5.8   939.4    0.00      43    100.5
 206    6:20   93.7    20    3.9   174      7.9   939.5    0.00      50    100.4
 206    6:30   94.7    19    4.8   173      8.5   939.6    0.00      67    100.3
 206    6:40   95.1    19    3.4   182      6.4   939.7    0.00      90    100.2
 206    6:50   94.9    20    2.6   174      8.6   939.8    0.00     111    100.2
 206    7:00   94.6    20    2.0   176      5.1   939.9    0.00     115    100.1
 206    7:10   94.6    20    2.4   178      7.8   940.0    0.00     105    100.0
 206    7:20   94.7    20    1.6   175      8.6   940.2    0.00      89    99.9
 206    7:30   94.7    21    0.9   173      3.4   940.3    0.00      80    99.8
 206    7:40   94.7    22    0.5    20      2.3   940.4    0.00     112    99.8
 206    7:50   94.7    24    0.4    45      1.8   940.5    0.00     165    99.7
 206    8:00   94.8    24    0.1   344      1.1   940.4    0.00     210    99.6
 206    8:10   95.3    24    0.4   149      5.8   940.4    0.00     251    99.5
 206    8:20   95.9    23    0.5    32      2.9   940.4    0.00     232    99.5
 206    8:30   96.7    22    0.3    14      2.0   940.5    0.00     205    99.4
 206    8:40   96.8    22    0.2    36      2.7   940.5    0.00     186    99.3
 206    8:50   96.7    22    0.5   176      3.2   940.6    0.00     219    99.3
 206    9:00   97.2    20    1.1   175      5.1   940.5    0.00     286    99.2
 206    9:10   98.1    21    0.9    74      4.5   940.6    0.00     339    99.2
 206    9:20   98.6    21    0.6   198      2.8   940.7    0.00     376    99.2
 206    9:30   98.5    22    1.3   310      5.0   940.7    0.00     398    99.1
 206    9:40   98.0    22    2.0   173      7.5   940.7    0.00     305    99.1
 206    9:50   97.7    22    2.2   172      6.6   940.7    0.00     272    99.0
 206   10:00   98.2    22    2.6   171     10.4   940.6    0.00     283    99.0
 206   10:10   98.2    21    4.5   172      9.5   940.6    0.00     398    99.0
 206   10:20   98.9    20    5.0   174     10.2   940.5    0.00     618    99.0
 206   10:30   99.3    20    4.6   178     10.5   940.4    0.00     430    99.0
 206   10:40   99.6    20    5.2   174     12.9   940.4    0.00     356    99.0
 206   10:50   99.2    20    6.8   175     14.1   940.4    0.00     242    99.0
 206   11:00   98.7    21    5.4   173     10.8   940.4    0.00     225    99.0
 206   11:10   98.7    21    4.0   173     11.9   940.4    0.00     244    99.0
 206   11:20   98.7    22    2.8   176      9.0   940.4    0.00     320    99.0
 206   11:30   99.1    21    5.7   172     11.0   940.3    0.00     386    99.1
 206   11:40   99.2    21    7.3   172     16.0   940.2    0.00     386    99.1
 206   11:50   99.4    20    6.3   174     14.7   940.2    0.00     356    99.1
 206   12:00   99.6    20    5.6   172     13.7   940.2    0.00     401    99.1
 206   12:10  100.1    20    5.7   175     13.3   940.1    0.00     529    99.1
 206   12:20  100.9    19    7.8   175     17.2   940.1    0.00     763    99.1
 206   12:30  101.3    17    8.2   174     16.6   940.0    0.00     558    99.2
 206   12:40  101.5    17   10.2   173     20.4   939.8    0.00     858    99.2
 206   12:50  101.5    16   10.1   173     17.0   939.7    0.00     405    99.2
 206   13:00  101.0    16   12.2   176     21.9   939.7    0.00     333    99.2
 206   13:10  100.3    18   11.3   181     19.7   939.7    0.00     250    99.3
 206   13:20   99.4    19   11.4   174     22.7   939.7    0.00     297    99.4
 206   13:30   99.3    18   10.6   182     17.4   939.6    0.00     293    99.4
 206   13:40   99.1    18   10.3   176     17.6   939.5    0.00     258    99.4
 206   13:50   99.2    18   10.8   173     20.5   939.3    0.00     221    99.5
 206   14:00   99.2    18    9.6   175     15.9   939.2    0.00     224    99.5
 206   14:10  100.0    17    7.1   180     13.0   939.2    0.00     321    99.6
 206   14:20  100.9    16    5.6   185     10.8   939.1    0.00     336    99.6
 206   14:30  101.0    17    6.1   186     14.4   939.2    0.00     580    99.7
 206   14:40  102.5    16    5.2   203     14.9   939.0    0.00     644    99.7
 206   14:50  102.8    15    5.2   199      9.1   938.7    0.00     845    99.8
 206   15:00  103.7    14    5.9   186     12.6   938.5    0.00     820    99.8
 206   15:10  104.3    14    4.7   197      9.3   938.4    0.00     742    99.8
 206   15:20  104.8    14    5.0   186     12.0   938.2    0.00     725    99.9
 206   15:30  104.6    14    5.3   180     11.2   938.0    0.00     689    99.9
 206   15:40  104.6    14    6.2   179     12.6   937.9    0.00     666    100.0
 206   15:50  104.3    14    5.1   200      9.6   938.0    0.00     593    100.1
 206   16:00  103.9    14    7.3   187     13.4   937.9    0.00     404    100.1
 206   16:10  103.2    14    4.6   207     11.6   937.9    0.00     234    100.2
 206   16:20  103.2    14    5.8   200     11.6   937.8    0.00     259    100.3
 206   16:30  103.0    15    4.7   188      9.1   937.7    0.00     179    100.4
 206   16:40  102.4    15    5.9   187     10.7   937.6    0.00     144    100.5
 206   16:50  102.5    15    5.4   188     10.4   937.6    0.00     186    100.5
 206   17:00  103.3    15    4.8   182     10.3   937.5    0.00     291    100.6
 206   17:10  102.6    15    4.5   197      9.8   937.6    0.00     122    100.7
 206   17:20  102.3    15    4.5   188      9.9   937.6    0.00      98    100.8
 206   17:30  102.5    15    3.6   201      6.6   937.6    0.00     100    100.9
 206   17:40  102.4    15    4.3   189      8.8   937.6    0.00      90    101.0

Return to Las Vegas, Nevada graphs page.


Western Regional Climate Center,wrcc@dri.edu